createdAt,value
2023-03-20T00:00:08.014Z,993.97
2023-03-20T00:05:12.147Z,994.07
2023-03-20T00:10:16.306Z,994.18
2023-03-20T00:15:20.481Z,994.44
2023-03-20T00:20:24.625Z,994.77
2023-03-20T00:25:28.786Z,994.91
2023-03-20T00:30:32.961Z,995.06
2023-03-20T00:35:37.469Z,995.12
2023-03-20T00:40:41.302Z,995.05
2023-03-20T00:45:45.420Z,995.16
2023-03-20T00:50:49.637Z,995.04
2023-03-20T00:55:53.782Z,995.26
2023-03-20T01:00:57.970Z,995.53
2023-03-20T01:06:02.098Z,995.86
2023-03-20T01:11:06.233Z,996.11
2023-03-20T01:16:10.437Z,996.10
2023-03-20T01:21:12.677Z,995.84
2023-03-20T01:26:16.845Z,995.43
2023-03-20T01:31:19.155Z,995.02
2023-03-20T01:36:23.333Z,994.51
2023-03-20T01:41:27.440Z,994.05
2023-03-20T01:46:31.746Z,994.09
2023-03-20T01:51:35.774Z,994.28
2023-03-20T01:56:39.893Z,994.62
2023-03-20T02:01:44.087Z,994.77
2023-03-20T02:06:48.246Z,994.89
2023-03-20T02:11:52.431Z,995.08
2023-03-20T02:16:56.647Z,995.25
2023-03-20T02:22:00.766Z,995.29
2023-03-20T02:27:04.900Z,995.28
2023-03-20T02:32:09.091Z,995.18
2023-03-20T02:37:13.207Z,995.13
2023-03-20T02:42:17.376Z,994.89
2023-03-20T02:47:21.562Z,994.71
2023-03-20T02:52:25.708Z,994.83
2023-03-20T02:57:29.874Z,994.98
2023-03-20T03:02:34.040Z,995.08
2023-03-20T03:07:38.184Z,995.18
2023-03-20T03:12:42.346Z,995.26
2023-03-20T03:17:44.628Z,995.31
2023-03-20T03:22:46.897Z,995.38
2023-03-20T03:27:49.149Z,995.42
2023-03-20T03:32:53.347Z,995.38
2023-03-20T03:37:57.478Z,995.36
2023-03-20T03:43:01.723Z,995.23
2023-03-20T03:48:05.842Z,995.16
2023-03-20T03:53:09.970Z,994.93
2023-03-20T03:58:14.162Z,994.82
2023-03-20T04:03:18.305Z,994.88
2023-03-20T04:08:22.475Z,995.15
2023-03-20T04:13:26.645Z,995.22
2023-03-20T04:18:30.816Z,995.30
2023-03-20T04:23:34.932Z,995.27
2023-03-20T04:33:43.298Z,995.09
2023-03-20T04:38:47.434Z,995.12
2023-03-20T04:43:51.596Z,995.12
2023-03-20T04:48:55.788Z,995.12
2023-03-20T04:53:59.956Z,995.19
2023-03-20T04:59:04.086Z,995.24
2023-03-20T05:04:08.314Z,995.32
2023-03-20T05:09:12.408Z,995.29
2023-03-20T05:14:16.606Z,995.32
2023-03-20T05:19:18.854Z,995.37
2023-03-20T05:24:22.988Z,995.46
2023-03-20T05:29:25.332Z,995.57
2023-03-20T05:34:29.477Z,995.57
2023-03-20T05:39:33.628Z,995.62
2023-03-20T05:44:37.772Z,995.58
2023-03-20T05:49:41.940Z,995.42
2023-03-20T05:54:46.143Z,995.29
2023-03-20T05:59:50.264Z,995.16
2023-03-20T06:04:54.403Z,995.06
2023-03-20T06:09:58.585Z,994.81
2023-03-20T06:15:02.752Z,994.63
2023-03-20T06:20:06.927Z,994.47
2023-03-20T06:25:11.050Z,994.45
2023-03-20T06:30:15.241Z,994.53
2023-03-20T06:35:19.429Z,994.73
2023-03-20T06:40:23.553Z,994.88
2023-03-20T06:45:27.719Z,994.94
2023-03-20T06:50:31.904Z,995.16
2023-03-20T06:55:36.366Z,995.49
2023-03-20T07:00:40.194Z,995.68
2023-03-20T07:05:44.363Z,995.94
2023-03-20T07:10:48.542Z,996.05
2023-03-20T07:16:03.728Z,996.21
2023-03-20T07:20:55.022Z,996.58
2023-03-20T07:25:57.243Z,997.09
2023-03-20T07:31:01.430Z,997.42
2023-03-20T07:36:05.614Z,997.89
2023-03-20T07:41:09.717Z,998.57
2023-03-20T07:46:14.015Z,999.28
2023-03-20T07:51:18.052Z,1000.05
2023-03-20T07:56:22.205Z,1001.32
2023-03-20T08:01:26.354Z,1002.15
2023-03-20T08:06:30.549Z,1002.80
2023-03-20T08:11:34.986Z,1003.50
2023-03-20T08:16:38.887Z,1004.10
2023-03-20T08:21:43.068Z,1004.86
2023-03-20T08:26:47.178Z,1005.46
2023-03-20T08:31:51.355Z,1005.64
2023-03-20T08:36:55.528Z,1005.77
2023-03-20T08:42:00.995Z,1006.05
2023-03-20T08:47:03.808Z,1006.45
2023-03-20T08:52:07.972Z,1006.78
2023-03-20T08:57:12.155Z,1007.23
2023-03-20T09:02:16.464Z,1007.30
2023-03-20T09:07:20.471Z,1007.30
2023-03-20T09:12:22.746Z,1007.56
2023-03-20T09:17:26.892Z,1007.73
2023-03-20T09:22:31.100Z,1007.87
2023-03-20T09:27:35.460Z,1007.98
2023-03-20T09:32:37.519Z,1008.06
2023-03-20T09:37:41.653Z,1008.31
2023-03-20T09:42:45.807Z,1008.37
2023-03-20T09:47:49.964Z,1008.29
2023-03-20T09:52:54.176Z,1008.33
2023-03-20T09:57:58.330Z,1008.29
2023-03-20T10:03:02.482Z,1008.48
2023-03-20T10:08:06.847Z,1008.50
2023-03-20T10:13:10.821Z,1008.60
2023-03-20T10:18:14.982Z,1008.45
2023-03-20T10:23:19.122Z,1008.41
2023-03-20T10:28:23.284Z,1008.57
2023-03-20T10:33:27.432Z,1008.58
2023-03-20T10:38:31.569Z,1008.58
2023-03-20T10:43:38.827Z,1008.45
2023-03-20T10:48:39.938Z,1008.58
2023-03-20T10:53:44.093Z,1008.61
2023-03-20T10:58:48.258Z,1008.72
2023-03-20T11:03:52.396Z,1008.75
2023-03-20T11:08:58.566Z,1008.71
2023-03-20T11:14:00.729Z,1008.80
2023-03-20T11:19:05.519Z,1008.84
2023-03-20T11:24:07.144Z,1008.95
2023-03-20T11:29:11.317Z,1008.79
2023-03-20T11:34:15.579Z,1008.88
2023-03-20T11:39:19.661Z,1008.89
2023-03-20T11:44:23.788Z,1008.88
2023-03-20T11:49:28.015Z,1008.88
2023-03-20T11:54:32.136Z,1008.80
2023-03-20T11:59:36.304Z,1008.84
2023-03-20T12:09:44.619Z,1008.96
2023-03-20T12:14:48.772Z,1008.84
2023-03-20T12:19:52.938Z,1008.78
2023-03-20T12:24:57.099Z,1008.99
2023-03-20T12:30:01.236Z,1008.93
2023-03-20T12:35:05.421Z,1008.86
2023-03-20T12:40:09.724Z,1008.79
2023-03-20T12:45:13.777Z,1008.74
2023-03-20T12:50:19.927Z,1008.60
2023-03-20T12:55:22.053Z,1008.54
2023-03-20T13:00:26.208Z,1008.45
2023-03-20T13:05:30.383Z,1008.26
2023-03-20T13:10:32.665Z,1008.24
2023-03-20T13:15:36.822Z,1008.28
2023-03-20T13:20:39.112Z,1008.21
2023-03-20T13:25:43.260Z,1008.14
2023-03-20T13:30:47.396Z,1008.03
2023-03-20T13:35:51.616Z,1007.83
2023-03-20T13:40:53.864Z,1007.68
2023-03-20T13:45:57.989Z,1007.76
2023-03-20T13:51:02.342Z,1007.83
2023-03-20T13:56:06.321Z,1007.88
2023-03-20T14:01:10.524Z,1007.84
2023-03-20T14:06:14.710Z,1007.72
2023-03-20T14:11:18.808Z,1007.63
2023-03-20T14:16:22.992Z,1007.60
2023-03-20T14:21:27.136Z,1007.61
2023-03-20T14:26:31.303Z,1007.66
2023-03-20T14:31:35.468Z,1007.51
2023-03-20T14:36:39.601Z,1007.57
2023-03-20T14:41:43.809Z,1007.43
2023-03-20T14:46:47.947Z,1007.21
2023-03-20T14:51:52.127Z,1007.06
2023-03-20T14:56:56.267Z,1006.97
2023-03-20T15:02:00.472Z,1007.09
2023-03-20T15:07:04.573Z,1007.12
2023-03-20T15:12:08.798Z,1007.24
2023-03-20T15:17:12.919Z,1007.26
2023-03-20T15:22:17.124Z,1007.24
2023-03-20T15:27:19.334Z,1007.28
2023-03-20T15:32:23.501Z,1007.12
2023-03-20T15:37:27.670Z,1007.07
2023-03-20T15:42:29.933Z,1006.83
2023-03-20T15:47:36.111Z,1006.65
2023-03-20T15:52:38.261Z,1006.28
2023-03-20T15:57:42.403Z,1005.98
2023-03-20T16:02:48.359Z,1005.76
2023-03-20T16:07:50.752Z,1005.73
2023-03-20T16:12:54.892Z,1005.65
2023-03-20T16:18:00.700Z,1005.54
2023-03-20T16:23:03.263Z,1005.51
2023-03-20T16:28:07.476Z,1005.59
2023-03-20T16:33:11.582Z,1005.77
2023-03-20T16:38:15.722Z,1005.77
2023-03-20T16:43:19.867Z,1005.78
2023-03-20T16:48:24.047Z,1005.79
2023-03-20T16:53:28.174Z,1005.70
2023-03-20T16:58:32.364Z,1005.56
2023-03-20T17:03:36.535Z,1005.39
2023-03-20T17:08:40.733Z,1005.34
2023-03-20T17:13:44.872Z,1005.27
2023-03-20T17:18:49.006Z,1005.17
2023-03-20T17:23:53.183Z,1005.04
2023-03-20T17:28:55.452Z,1005.03
2023-03-20T17:33:59.619Z,1005.05
2023-03-20T17:39:03.776Z,1004.87
2023-03-20T17:44:08.024Z,1004.75
2023-03-20T17:49:12.067Z,1004.49
2023-03-20T17:54:16.254Z,1004.24
2023-03-20T17:59:20.429Z,1003.85
2023-03-20T18:04:24.584Z,1003.84
2023-03-20T18:09:28.720Z,1003.84
2023-03-20T18:14:32.882Z,1003.95
2023-03-20T18:19:37.047Z,1004.14
2023-03-20T18:24:44.118Z,1004.29
2023-03-20T18:29:45.384Z,1004.41
2023-03-20T18:34:49.548Z,1004.69
2023-03-20T18:39:53.727Z,1004.88
2023-03-20T18:44:57.861Z,1004.97
2023-03-20T18:50:02.060Z,1005.16
2023-03-20T18:55:06.215Z,1005.19
2023-03-20T19:00:10.354Z,1005.35
2023-03-20T19:05:14.547Z,1005.38
2023-03-20T19:10:18.728Z,1005.35
2023-03-20T19:15:20.969Z,1005.43
2023-03-20T19:20:25.141Z,1005.36
2023-03-20T19:25:27.376Z,1005.38
2023-03-20T19:30:31.561Z,1005.33
2023-03-20T19:36:01.359Z,1005.37
2023-03-20T19:40:42.859Z,1005.44
2023-03-20T19:45:44.059Z,1005.48
2023-03-20T19:50:48.221Z,1005.48
2023-03-20T19:55:52.552Z,1005.56
2023-03-20T20:01:11.115Z,1005.43
2023-03-20T20:06:00.668Z,1005.46
2023-03-20T20:11:04.868Z,1005.39
2023-03-20T20:16:09.048Z,1005.39
2023-03-20T20:22:06.339Z,1005.38
2023-03-20T20:26:15.839Z,1005.43
2023-03-20T20:31:19.636Z,1005.42
2023-03-20T20:37:32.268Z,1005.44
2023-03-20T20:41:27.912Z,1005.45
2023-03-20T20:46:32.206Z,1005.63
2023-03-20T20:51:36.216Z,1005.51
2023-03-20T20:56:40.394Z,1005.55
2023-03-20T21:01:44.664Z,1005.43
2023-03-20T21:07:08.716Z,1005.38
2023-03-20T21:11:51.004Z,1005.49
2023-03-20T21:16:55.192Z,1005.54
2023-03-20T21:21:57.450Z,1005.57
2023-03-20T21:27:01.602Z,1005.68
2023-03-20T21:32:05.848Z,1005.72
2023-03-20T21:42:14.059Z,1005.91
2023-03-20T21:48:04.278Z,1005.86
2023-03-20T21:53:05.944Z,1005.77
2023-03-20T21:58:10.504Z,1005.74
2023-03-20T22:02:32.639Z,1005.68
2023-03-20T22:08:27.897Z,1005.59
2023-03-20T22:13:44.549Z,1005.55
2023-03-20T22:18:38.385Z,1005.54
2023-03-20T22:23:50.766Z,1005.51
2023-03-20T22:28:33.264Z,1005.43
2023-03-20T22:34:09.677Z,1005.39
2023-03-20T22:38:55.011Z,1005.41
2023-03-20T22:43:59.892Z,1005.39
2023-03-20T22:48:08.189Z,1005.39
2023-03-20T22:53:12.360Z,1005.36
2023-03-20T22:58:16.489Z,1005.30
2023-03-20T23:03:33.752Z,1005.24
2023-03-20T23:08:23.076Z,1005.18
2023-03-20T23:13:27.102Z,1005.08
2023-03-20T23:18:29.397Z,1004.95
2023-03-20T23:23:33.523Z,1004.85
2023-03-20T23:28:37.667Z,1004.89
2023-03-20T23:33:41.821Z,1004.93
2023-03-20T23:38:45.989Z,1004.85
2023-03-20T23:43:52.528Z,1004.84
2023-03-20T23:48:54.314Z,1004.76
2023-03-20T23:53:58.494Z,1004.70
2023-03-20T23:59:11.418Z,1004.62
